Time;durP1;ratioP1;P1;durP2;ratioP2;P2;SDS_P1;SDS_P2;PMS_P1;PMS_P2;Temp;Humidity;BMP_temperature;BMP_pressure;BME280_temperature;BME280_humidity;BME280_pressure;Samples;Min_cycle;Max_cycle;Signal;HPM_P1;HPM_P2
2022/08/02 00:02:13;;;;;;;6.28;3.03;;;;;;;15.33;67.17;101705.78;5029656;28;20026;-73
2022/08/02 00:04:38;;;;;;;11.48;2.97;;;;;;;15.32;67.44;101704.03;5017571;28;20936;-73
2022/08/02 00:07:03;;;;;;;10.45;2.97;;;;;;;15.33;66.37;101696.75;5031204;28;20037;-73
2022/08/02 00:09:29;;;;;;;10.70;3.10;;;;;;;15.35;67.19;101695.66;5031764;28;20132;-73
2022/08/02 00:11:54;;;;;;;8.77;2.80;;;;;;;15.35;65.48;101684.84;5017254;28;20030;-73
2022/08/02 00:14:19;;;;;;;7.40;2.60;;;;;;;15.38;66.83;101683.72;5029401;28;20037;-73
2022/08/02 00:16:44;;;;;;;6.80;2.75;;;;;;;15.40;66.16;101680.91;5029527;28;20052;-73
2022/08/02 00:19:10;;;;;;;7.93;2.53;;;;;;;15.41;66.58;101683.47;5027534;28;20021;-73
2022/08/02 00:21:35;;;;;;;10.57;3.13;;;;;;;15.41;66.06;101682.63;5016581;28;20030;-73
2022/08/02 00:24:00;;;;;;;7.07;2.85;;;;;;;15.40;66.69;101692.59;5033032;28;20156;-73
2022/08/02 00:26:26;;;;;;;11.95;3.20;;;;;;;15.42;65.44;101700.59;5034234;28;20037;-73
2022/08/02 00:28:51;;;;;;;10.73;3.30;;;;;;;15.42;66.28;101706.88;5033977;28;20054;-73
2022/08/02 00:31:16;;;;;;;7.28;2.53;;;;;;;15.44;65.91;101701.34;5033608;28;20403;-73
2022/08/02 00:33:42;;;;;;;10.13;3.33;;;;;;;15.44;66.28;101704.06;5034955;28;20039;-73
2022/08/02 00:36:07;;;;;;;9.52;2.78;;;;;;;15.46;65.19;101704.78;5030518;28;20032;-73
2022/08/02 00:38:32;;;;;;;9.48;2.92;;;;;;;15.52;66.21;101696.16;5030592;28;20030;-73
2022/08/02 00:40:57;;;;;;;7.70;2.83;;;;;;;15.58;64.47;101700.22;5035455;28;20045;-73
2022/08/02 00:43:23;;;;;;;8.15;2.72;;;;;;;15.65;64.57;101702.31;5033396;28;20032;-73
2022/08/02 00:45:48;;;;;;;8.13;2.35;;;;;;;15.72;62.38;101692.72;5032530;28;20029;-73
2022/08/02 00:48:13;;;;;;;6.18;2.47;;;;;;;15.81;61.14;101696.53;5034938;28;20500;-73
2022/08/02 00:50:40;;;;;;;11.20;2.97;;;;;;;15.86;60.70;101690.75;5032448;28;20032;-73
2022/08/02 00:53:08;;;;;;;8.02;2.70;;;;;;;15.89;61.79;101685.06;5019930;28;20029;-73
2022/08/02 00:55:34;;;;;;;9.75;2.65;;;;;;;15.91;62.28;101674.94;5033662;28;20032;-73
2022/08/02 00:57:59;;;;;;;9.65;2.42;;;;;;;15.90;62.62;101671.38;5036447;28;20293;-73
2022/08/02 01:00:25;;;;;;;8.63;2.80;;;;;;;15.93;62.15;101669.38;5035660;28;20033;-74
2022/08/02 01:02:50;;;;;;;14.00;3.00;;;;;;;15.94;62.21;101666.53;5033406;28;20037;-74
2022/08/02 01:05:16;;;;;;;12.73;2.97;;;;;;;15.97;61.90;101657.31;5034484;28;20034;-74
2022/08/02 01:07:41;;;;;;;5.75;2.20;;;;;;;15.97;61.24;101662.72;5034420;28;20040;-74
2022/08/02 01:10:07;;;;;;;7.32;2.58;;;;;;;15.99;60.93;101664.34;5032034;28;20033;-74
2022/08/02 01:12:33;;;;;;;7.38;2.50;;;;;;;16.01;61.88;101670.47;5032749;28;20029;-74
2022/08/02 01:15:06;;;;;;;8.02;2.92;;;;;;;16.05;60.80;101671.09;5034727;28;20405;-74
2022/08/02 01:17:53;;;;;;;7.05;2.33;;;;;;;16.08;60.76;101666.25;5039472;28;20037;-74
2022/08/02 01:20:40;;;;;;;8.25;2.47;;;;;;;16.12;60.21;101666.88;5031193;28;20038;-74
2022/08/02 01:23:32;;;;;;;12.23;3.03;;;;;;;16.17;60.46;101669.19;5034087;28;20489;-74
2022/08/02 01:25:57;;;;;;;9.75;2.88;;;;;;;16.21;59.76;101667.97;5033572;28;20112;-74
2022/08/02 01:28:37;;;;;;;7.72;2.53;;;;;;;16.24;60.52;101673.13;5028824;28;20118;-74
2022/08/02 01:31:19;;;;;;;9.32;2.50;;;;;;;16.27;60.59;101670.16;5022197;28;20500;-74
2022/08/02 01:34:00;;;;;;;8.52;2.70;;;;;;;16.30;60.10;101669.88;5028856;28;20040;-74
2022/08/02 01:36:30;;;;;;;7.35;2.35;;;;;;;16.32;59.72;101672.47;5032593;28;20413;-76
2022/08/02 01:38:56;;;;;;;10.38;3.30;;;;;;;16.36;59.79;101669.34;5029602;28;20029;-75
2022/08/02 01:41:24;;;;;;;8.85;2.55;;;;;;;16.36;59.70;101666.66;5033343;28;20040;-75
2022/08/02 01:43:54;;;;;;;10.40;3.03;;;;;;;16.38;59.49;101661.09;5031518;28;20032;-75
2022/08/02 01:46:20;;;;;;;;;;;;;;;16.44;61.32;101660.56;5033400;28;20040;-75
2022/08/02 01:48:47;;;;;;;9.93;3.05;;;;;;;16.36;59.84;101661.22;5031843;28;19917;-75
2022/08/02 01:51:16;;;;;;;13.10;3.38;;;;;;;16.35;61.39;101650.50;5036333;28;20386;-75
2022/08/02 01:53:44;;;;;;;9.00;2.97;;;;;;;16.32;61.76;101650.75;5033088;28;20444;-75
2022/08/02 01:56:11;;;;;;;6.55;2.65;;;;;;;16.27;61.48;101647.56;5031497;28;20029;-75
2022/08/02 01:58:39;;;;;;;6.80;2.42;;;;;;;16.23;61.79;101647.81;5031279;28;20117;-75
2022/08/02 02:01:08;;;;;;;11.63;3.05;;;;;;;16.19;61.03;101640.09;5029613;28;20035;-75
2022/08/02 02:03:35;;;;;;;7.18;2.08;;;;;;;16.19;60.59;101642.78;5032047;28;20033;-75
2022/08/02 02:06:04;;;;;;;8.98;2.63;;;;;;;16.21;61.24;101644.41;5033819;28;20539;-75
2022/08/02 02:08:33;;;;;;;14.70;3.47;;;;;;;16.22;60.93;101645.25;5012668;28;20034;-75
2022/08/02 02:10:59;;;;;;;9.13;2.70;;;;;;;16.23;61.23;101631.56;5032304;28;20029;-75
2022/08/02 02:13:26;;;;;;;11.70;2.90;;;;;;;16.24;62.28;101632.44;5030930;28;20025;-75
2022/08/02 02:15:53;;;;;;;9.70;2.70;;;;;;;16.24;61.98;101627.88;5032592;28;20084;-75
2022/08/02 02:18:28;;;;;;;7.28;3.00;;;;;;;16.26;61.78;101630.44;5032530;28;20025;-75
2022/08/02 02:20:53;;;;;;;7.97;2.90;;;;;;;16.27;61.83;101625.88;5023120;28;20091;-75
2022/08/02 02:23:19;;;;;;;12.18;2.65;;;;;;;16.27;62.11;101617.72;5023282;28;20029;-75
2022/08/02 02:25:46;;;;;;;10.52;2.90;;;;;;;16.25;63.74;101613.31;5024195;28;20038;-75
2022/08/02 02:28:21;;;;;;;9.85;2.88;;;;;;;16.24;62.62;101608.88;5031285;28;20021;-75
2022/08/02 02:30:52;;;;;;;13.18;3.45;;;;;;;16.24;62.85;101605.31;5031807;28;20051;-75
2022/08/02 02:33:19;;;;;;;9.63;3.00;;;;;;;16.23;62.70;101614.44;5030204;28;20415;-75
2022/08/02 02:35:46;;;;;;;10.88;2.92;;;;;;;16.18;62.99;101603.97;5031186;28;20035;-75
2022/08/02 02:38:15;;;;;;;8.27;2.42;;;;;;;16.16;64.08;101608.66;5026143;28;20092;-75
2022/08/02 02:40:41;;;;;;;7.27;2.87;;;;;;;16.14;64.38;101610.66;5038074;28;20056;-75
2022/08/02 02:43:09;;;;;;;7.90;2.72;;;;;;;16.08;64.61;101611.19;5031088;28;20021;-75
2022/08/02 02:45:36;;;;;;;8.88;3.00;;;;;;;16.02;65.54;101612.56;5025092;28;20022;-75
2022/08/02 02:48:03;;;;;;;8.88;2.70;;;;;;;15.94;65.57;101611.47;5012767;28;20025;-75
2022/08/02 02:50:29;;;;;;;9.20;2.70;;;;;;;15.87;65.70;101620.13;5023969;28;20052;-75
2022/08/02 02:52:56;;;;;;;12.32;3.22;;;;;;;15.78;66.21;101614.56;5029614;28;20477;-75
2022/08/02 02:55:23;;;;;;;7.18;2.50;;;;;;;15.67;66.64;101616.31;5032152;28;20025;-75
2022/08/02 02:57:49;;;;;;;7.40;2.60;;;;;;;15.65;66.39;101612.00;5029614;28;20029;-75
2022/08/02 03:00:14;;;;;;;12.02;2.95;;;;;;;15.59;66.99;101616.09;5030425;28;20452;-75
2022/08/02 03:02:42;;;;;;;12.65;3.63;;;;;;;15.53;67.17;101617.47;5028716;28;20028;-75
2022/08/02 03:05:09;;;;;;;7.72;2.45;;;;;;;15.48;67.46;101608.84;5022172;28;20061;-75
2022/08/02 03:07:35;;;;;;;8.32;3.00;;;;;;;15.45;68.75;101608.25;5032582;28;20045;-75
2022/08/02 03:10:03;;;;;;;12.05;3.35;;;;;;;15.43;67.91;101599.38;5030256;28;20051;-75
2022/08/02 03:12:30;;;;;;;13.52;3.80;;;;;;;15.41;67.64;101601.38;5031001;28;20524;-75
2022/08/02 03:15:00;;;;;;;6.15;2.60;;;;;;;15.41;68.06;101599.50;5031974;28;20311;-75
2022/08/02 03:17:36;;;;;;;18.48;3.22;;;;;;;15.42;67.77;101601.25;5028536;28;20041;-75
2022/08/02 03:20:02;;;;;;;10.50;3.08;;;;;;;15.43;67.36;101600.22;5028340;28;20045;-75
2022/08/02 03:22:27;;;;;;;11.52;3.55;;;;;;;15.44;68.10;101601.97;5028723;28;20029;-75
2022/08/02 03:24:52;;;;;;;10.80;2.85;;;;;;;15.44;67.59;101595.69;5030388;28;20033;-75
2022/08/02 03:27:18;;;;;;;13.80;3.75;;;;;;;15.44;67.81;101606.53;5031238;28;20470;-75
2022/08/02 03:29:43;;;;;;;15.40;4.03;;;;;;;15.44;66.59;101607.38;5029968;28;20107;-75
2022/08/02 03:32:08;;;;;;;11.95;3.47;;;;;;;15.44;69.08;101610.09;5032194;28;20028;-75
2022/08/02 03:34:34;;;;;;;16.88;3.50;;;;;;;15.44;67.35;101614.66;5027595;28;20429;-75
2022/08/02 03:37:01;;;;;;;14.43;3.58;;;;;;;15.43;67.72;101605.66;5031644;28;20068;-75
2022/08/02 03:39:27;;;;;;;15.25;4.15;;;;;;;15.44;67.66;101601.97;5029640;28;20033;-75
2022/08/02 03:41:53;;;;;;;12.43;3.85;;;;;;;15.45;68.18;101587.44;5011194;28;20057;-75
2022/08/02 03:44:18;;;;;;;11.75;3.85;;;;;;;15.48;67.86;101581.75;5025591;28;20037;-75
2022/08/02 03:46:44;;;;;;;12.88;3.95;;;;;;;15.50;67.61;101587.91;5030662;28;20083;-75
2022/08/02 03:49:11;;;;;;;10.70;3.50;;;;;;;15.53;67.47;101593.09;5031549;28;20032;-75
2022/08/02 03:51:37;;;;;;;14.35;3.88;;;;;;;15.53;67.72;101587.69;5022872;28;20021;-75
2022/08/02 03:54:03;;;;;;;13.65;4.43;;;;;;;15.51;68.62;101580.66;5029608;28;20025;-75
2022/08/02 03:56:29;;;;;;;15.30;3.90;;;;;;;15.51;67.87;101584.22;5034130;28;20037;-75
2022/08/02 03:59:11;;;;;;;13.45;4.22;;;;;;;15.54;67.55;101575.84;5032555;28;20025;-75
2022/08/02 04:01:37;;;;;;;15.43;3.85;;;;;;;15.54;66.92;101577.69;5033738;28;20047;-75
2022/08/02 04:04:02;;;;;;;10.43;3.88;;;;;;;15.58;69.05;101575.56;5034853;28;20029;-75
2022/08/02 04:06:28;;;;;;;16.48;4.75;;;;;;;15.58;68.43;101568.31;5022419;28;20034;-75
2022/08/02 04:08:53;;;;;;;16.02;4.45;;;;;;;15.59;67.83;101569.19;5029515;28;20021;-75
2022/08/02 04:11:30;;;;;;;14.20;4.38;;;;;;;15.62;67.61;101552.66;5035408;28;20030;-75
2022/08/02 04:13:58;;;;;;;14.57;4.60;;;;;;;15.68;67.28;101560.28;5034983;28;20029;-75
2022/08/02 04:16:36;;;;;;;13.43;3.75;;;;;;;15.69;68.22;101564.72;5031251;28;20055;-75
2022/08/02 04:19:04;;;;;;;16.08;4.28;;;;;;;15.70;68.11;101564.56;5028623;28;20108;-75
2022/08/02 04:21:37;;;;;;;18.88;4.72;;;;;;;15.71;68.06;101558.19;5024952;28;20037;-75
2022/08/02 04:24:06;;;;;;;12.85;4.43;;;;;;;15.74;68.38;101559.78;5038270;28;20469;-75
2022/08/02 04:26:33;;;;;;;13.85;4.38;;;;;;;15.75;68.73;101560.63;5033789;28;20377;-75
2022/08/02 04:28:59;;;;;;;12.27;4.05;;;;;;;15.76;69.32;101568.63;5034454;28;20067;-75
2022/08/02 04:31:25;;;;;;;14.20;4.05;;;;;;;15.76;69.33;101567.78;5033683;28;20484;-75
2022/08/02 04:33:51;;;;;;;16.83;4.68;;;;;;;15.77;68.45;101569.47;5028790;28;20421;-75
2022/08/02 04:36:18;;;;;;;13.10;4.57;;;;;;;15.78;69.16;101571.22;5028752;28;20503;-75
2022/08/02 04:38:43;;;;;;;17.38;4.28;;;;;;;15.81;69.76;101570.97;5033526;28;20096;-75
2022/08/02 04:41:08;;;;;;;15.85;4.75;;;;;;;15.81;69.42;101576.41;5053269;28;20039;-75
2022/08/02 04:43:34;;;;;;;11.85;3.97;;;;;;;15.84;69.37;101576.13;5032899;28;20013;-75
2022/08/02 04:46:01;;;;;;;17.55;5.20;;;;;;;15.87;69.26;101573.16;5022338;28;20038;-75
2022/08/02 04:48:28;;;;;;;12.77;4.82;;;;;;;15.87;69.64;101576.75;5018640;28;20076;-75
2022/08/02 04:50:53;;;;;;;14.18;4.60;;;;;;;15.90;70.92;101568.38;5024253;28;20030;-75
2022/08/02 04:53:19;;;;;;;11.98;4.35;;;;;;;15.91;70.74;101569.22;5026385;28;20021;-75
2022/08/02 04:55:45;;;;;;;18.60;5.25;;;;;;;15.93;70.54;101560.94;5035090;28;20032;-75
2022/08/02 04:58:10;;;;;;;19.25;5.68;;;;;;;15.95;71.11;101562.53;5031657;28;20025;-75
2022/08/02 05:00:36;;;;;;;15.20;4.93;;;;;;;15.97;71.46;101562.41;5023501;28;20060;-75
2022/08/02 05:03:01;;;;;;;17.67;5.97;;;;;;;15.98;72.06;101556.00;5031653;28;20021;-75
2022/08/02 05:05:27;;;;;;;13.05;4.72;;;;;;;15.98;71.63;101556.84;5033844;28;20068;-75
2022/08/02 05:07:52;;;;;;;15.13;5.18;;;;;;;15.99;72.11;101555.88;5033741;28;20029;-75
2022/08/02 05:10:18;;;;;;;20.17;5.43;;;;;;;15.99;71.57;101553.16;5026557;28;20040;-75
2022/08/02 05:12:43;;;;;;;17.48;6.20;;;;;;;16.04;72.25;101564.47;5022778;28;20026;-75
2022/08/02 05:15:11;;;;;;;21.75;5.95;;;;;;;16.07;72.41;101566.91;5031587;28;20022;-75
2022/08/02 05:17:36;;;;;;;17.35;5.78;;;;;;;16.12;72.33;101557.53;5031701;28;20037;-75
2022/08/02 05:20:03;;;;;;;14.55;5.38;;;;;;;16.17;72.96;101561.56;5030231;28;20168;-75
2022/08/02 05:22:29;;;;;;;17.13;6.35;;;;;;;16.21;74.07;101560.31;5013106;28;20033;-75
2022/08/02 05:24:54;;;;;;;18.08;6.00;;;;;;;16.25;74.15;101559.06;5030833;28;20401;-75
2022/08/02 05:27:19;;;;;;;16.95;5.80;;;;;;;16.28;73.73;101555.22;5024417;28;20028;-76
2022/08/02 05:29:44;;;;;;;18.83;6.57;;;;;;;16.33;73.49;101544.84;5024745;28;20083;-75
2022/08/02 05:32:10;;;;;;;20.88;6.22;;;;;;;16.37;73.72;101543.59;5023029;28;20417;-75
2022/08/02 05:34:35;;;;;;;18.13;6.93;;;;;;;16.41;73.51;101542.31;5040289;28;20115;-75
2022/08/02 05:37:00;;;;;;;16.83;6.35;;;;;;;16.46;74.51;101533.78;5023808;28;20028;-75
2022/08/02 05:39:26;;;;;;;17.38;6.45;;;;;;;16.52;74.38;101549.50;5025012;28;20367;-76
2022/08/02 05:41:51;;;;;;;19.90;7.05;;;;;;;16.57;74.44;101550.00;5026978;28;20026;-76
2022/08/02 05:44:16;;;;;;;18.88;7.75;;;;;;;16.64;74.69;101542.16;5026883;28;20041;-76
2022/08/02 05:46:41;;;;;;;17.00;7.20;;;;;;;16.72;75.05;101539.63;5035003;28;20402;-77
2022/08/02 05:49:07;;;;;;;18.95;6.53;;;;;;;16.77;75.50;101548.22;5022823;28;20029;-76
2022/08/02 05:51:43;;;;;;;19.55;7.45;;;;;;;16.83;74.98;101556.81;5021442;28;20385;-76
2022/08/02 05:54:26;;;;;;;18.80;7.03;;;;;;;16.87;74.46;101556.44;5022031;28;20039;-76
2022/08/02 05:57:03;;;;;;;18.65;6.97;;;;;;;16.96;75.52;101557.47;5022568;28;20033;-76
2022/08/02 05:59:52;;;;;;;22.98;6.85;;;;;;;17.04;77.31;101562.22;5022356;28;20596;-76
2022/08/02 06:02:29;;;;;;;20.48;7.72;;;;;;;17.09;75.86;101568.94;5018134;28;20052;-76
2022/08/02 06:05:10;;;;;;;18.98;7.28;;;;;;;17.16;75.57;101574.72;5026774;28;20030;-76
2022/08/02 06:07:36;;;;;;;17.75;6.47;;;;;;;17.21;75.87;101571.56;5038708;28;20053;-76
2022/08/02 06:10:05;;;;;;;19.67;7.53;;;;;;;17.26;77.94;101575.59;5021912;28;20498;-76
2022/08/02 06:12:32;;;;;;;22.50;7.35;;;;;;;17.30;76.16;101577.00;5037984;28;20017;-76
2022/08/02 06:14:58;;;;;;;20.70;8.00;;;;;;;17.35;78.22;101573.91;5038129;28;20017;-76
2022/08/02 06:17:24;;;;;;;21.35;8.40;;;;;;;17.38;76.30;101579.06;5018813;28;20496;-76
2022/08/02 06:19:55;;;;;;;21.63;7.32;;;;;;;17.42;76.30;101583.22;5022648;28;20025;-76
2022/08/02 06:22:24;;;;;;;21.15;8.32;;;;;;;17.46;76.88;101586.50;5021346;28;20053;-76
2022/08/02 06:24:51;;;;;;;21.50;9.00;;;;;;;17.50;76.70;101578.91;5017769;28;20555;-76
2022/08/02 06:27:17;;;;;;;22.50;8.85;;;;;;;17.52;77.53;101579.66;5020269;28;20044;-76
2022/08/02 06:29:43;;;;;;;18.73;8.25;;;;;;;17.56;77.42;101571.06;5029343;28;20457;-76
2022/08/02 06:32:09;;;;;;;18.75;7.68;;;;;;;17.60;78.19;101568.91;5024421;28;20044;-76
2022/08/02 06:34:38;;;;;;;20.58;8.32;;;;;;;17.62;76.64;101562.34;5016228;28;20033;-76
2022/08/02 06:37:34;;;;;;;22.63;9.07;;;;;;;17.67;77.04;101567.34;5022375;28;20024;-76
2022/08/02 06:40:27;;;;;;;19.05;7.72;;;;;;;17.72;77.25;101570.53;5020893;28;20464;-76
2022/08/02 06:43:19;;;;;;;20.10;8.23;;;;;;;17.80;76.80;101565.25;5021381;28;20100;-77
2022/08/02 06:45:44;;;;;;;21.67;9.70;;;;;;;17.86;76.74;101571.09;5022795;28;20378;-77
2022/08/02 06:48:10;;;;;;;23.48;9.40;;;;;;;17.90;77.70;101559.81;5019640;28;20051;-77
2022/08/02 06:50:40;;;;;;;19.52;9.15;;;;;;;17.95;78.31;101560.25;5021839;28;20381;-76
2022/08/02 06:53:07;;;;;;;17.83;7.53;;;;;;;17.99;77.33;101556.25;5016700;28;20037;-77
2022/08/02 06:55:33;;;;;;;22.58;10.35;;;;;;;18.08;78.37;101565.41;5017064;28;20424;-76
2022/08/02 06:57:59;;;;;;;23.08;10.55;;;;;;;18.13;78.66;101563.09;5021316;28;20025;-76
2022/08/02 07:00:24;;;;;;;21.00;10.35;;;;;;;18.19;78.47;101566.25;5022717;28;20705;-77
2022/08/02 07:02:50;;;;;;;21.50;10.95;;;;;;;18.25;79.16;101560.25;5019757;28;20452;-77
2022/08/02 07:05:15;;;;;;;22.58;10.15;;;;;;;18.28;79.43;101560.78;5018733;28;20028;-77
2022/08/02 07:07:41;;;;;;;28.45;9.43;;;;;;;18.34;79.05;101571.09;5018485;28;20025;-77
2022/08/02 07:10:07;;;;;;;24.17;11.52;;;;;;;18.41;80.05;101571.38;5024886;28;20111;-77
2022/08/02 07:12:34;;;;;;;24.90;10.18;;;;;;;18.45;79.72;101570.06;5023451;28;20040;-77
2022/08/02 07:15:01;;;;;;;22.02;9.50;;;;;;;18.51;80.35;101572.22;5024843;28;20505;-78
2022/08/02 07:17:27;;;;;;;24.92;9.80;;;;;;;18.55;78.13;101569.19;5026601;28;20037;-77
2022/08/02 07:19:52;;;;;;;20.77;9.65;;;;;;;18.60;78.03;101564.19;5029784;28;20044;-78
2022/08/02 07:22:21;;;;;;;19.27;7.45;;;;;;;18.61;75.26;101564.03;5025850;28;20037;-78
2022/08/02 07:24:47;;;;;;;22.45;9.95;;;;;;;18.68;77.39;101551.53;5028834;28;20029;-78
2022/08/02 07:27:12;;;;;;;25.58;8.65;;;;;;;18.73;78.52;101551.09;5029349;28;20538;-78
2022/08/02 07:29:38;;;;;;;20.63;7.72;;;;;;;18.75;77.97;101551.78;5026315;28;20053;-78
2022/08/02 07:32:04;;;;;;;20.50;7.47;;;;;;;18.78;77.11;101550.63;5028505;28;20017;-78
2022/08/02 07:34:29;;;;;;;24.00;7.85;;;;;;;18.84;78.42;101544.59;5028051;28;20072;-78
2022/08/02 07:36:54;;;;;;;18.50;7.93;;;;;;;18.89;77.55;101541.44;5027476;28;20032;-78
2022/08/02 07:39:20;;;;;;;20.48;8.75;;;;;;;18.93;77.24;101546.47;5026568;28;20030;-78
2022/08/02 07:41:46;;;;;;;19.40;5.90;;;;;;;18.94;75.87;101539.97;5025890;28;20064;-78
2022/08/02 07:44:11;;;;;;;21.08;8.85;;;;;;;19.00;76.36;101542.09;5029139;28;20037;-77
2022/08/02 07:46:37;;;;;;;18.23;7.25;;;;;;;19.04;76.20;101539.94;5034599;28;20084;-77
2022/08/02 07:49:02;;;;;;;15.55;5.47;;;;;;;19.06;74.85;101543.34;5028887;28;20031;-77
2022/08/02 07:51:27;;;;;;;15.48;5.95;;;;;;;19.13;76.16;101549.91;5034167;28;20105;-77
2022/08/02 07:53:53;;;;;;;18.13;7.13;;;;;;;19.21;76.82;101550.03;5048470;28;20032;-77
2022/08/02 07:56:18;;;;;;;13.05;5.25;;;;;;;19.20;73.05;101550.19;5049961;28;20091;-77
2022/08/02 07:58:43;;;;;;;14.05;5.28;;;;;;;19.27;76.09;101561.31;5047198;28;20021;-77
2022/08/02 08:01:09;;;;;;;19.55;5.90;;;;;;;19.35;75.92;101553.25;5029161;28;20025;-78
2022/08/02 08:03:34;;;;;;;16.98;5.47;;;;;;;19.39;74.99;101551.94;5039119;28;20116;-78
2022/08/02 08:06:00;;;;;;;13.25;4.75;;;;;;;19.47;75.07;101551.16;5029653;28;20025;-78
2022/08/02 08:08:25;;;;;;;17.63;5.75;;;;;;;19.55;75.10;101553.97;5046813;28;20036;-78
2022/08/02 08:10:50;;;;;;;12.60;4.25;;;;;;;19.58;74.21;101553.69;5039881;28;20485;-78
2022/08/02 08:13:16;;;;;;;16.17;5.03;;;;;;;19.66;75.79;101551.00;5029647;28;20036;-78
2022/08/02 08:15:41;;;;;;;11.18;4.65;;;;;;;19.69;73.74;101548.00;5034564;28;20032;-78
2022/08/02 08:18:06;;;;;;;12.13;4.47;;;;;;;19.74;73.29;101550.25;5032179;28;20030;-78
2022/08/02 08:20:32;;;;;;;13.25;4.70;;;;;;;19.78;71.69;101559.88;5040911;28;20485;-78
2022/08/02 08:22:57;;;;;;;13.57;4.90;;;;;;;19.88;70.27;101559.78;5046479;28;20424;-78
2022/08/02 08:25:23;;;;;;;14.95;4.88;;;;;;;19.97;71.85;101547.06;5049402;28;20040;-79
2022/08/02 08:27:50;;;;;;;12.55;4.53;;;;;;;19.97;71.83;101552.53;5032020;28;20033;-78
2022/08/02 08:30:16;;;;;;;7.93;3.42;;;;;;;20.03;72.72;101544.59;5026877;28;20049;-78
2022/08/02 08:32:42;;;;;;;14.75;5.05;;;;;;;20.13;71.52;101546.34;5028330;28;20017;-78
2022/08/02 08:35:07;;;;;;;11.35;4.18;;;;;;;20.20;71.33;101542.81;5028873;28;20026;-78
2022/08/02 08:37:34;;;;;;;13.35;4.25;;;;;;;20.27;69.62;101539.47;5031553;28;20114;-78
2022/08/02 08:40:00;;;;;;;12.07;4.65;;;;;;;20.34;69.08;101544.13;5030074;28;20531;-78
2022/08/02 08:42:26;;;;;;;14.45;4.15;;;;;;;20.40;69.32;101532.56;5033377;28;20121;-78
2022/08/02 08:44:51;;;;;;;8.40;3.45;;;;;;;20.44;67.15;101546.78;5035713;28;20025;-78
2022/08/02 08:47:18;;;;;;;15.05;4.35;;;;;;;20.50;67.33;101554.31;5029436;28;20026;-77
2022/08/02 08:49:51;;;;;;;8.25;3.03;;;;;;;20.55;65.06;101551.94;5031879;28;20029;-72
2022/08/02 08:52:18;;;;;;;13.38;3.78;;;;;;;20.62;66.23;101552.16;5031033;28;20366;-68
2022/08/02 08:54:47;;;;;;;7.90;3.13;;;;;;;20.64;64.71;101557.47;5031592;28;20111;-72
2022/08/02 08:57:15;;;;;;;11.93;3.97;;;;;;;20.68;64.58;101548.81;5030914;28;20026;-72
2022/08/02 08:59:40;;;;;;;9.18;3.55;;;;;;;20.71;62.79;101543.03;5031831;28;20033;-72
2022/08/02 09:02:06;;;;;;;7.55;3.10;;;;;;;20.75;64.66;101541.69;5029452;28;20546;-72
2022/08/02 09:04:31;;;;;;;7.97;3.10;;;;;;;20.76;64.32;101543.41;5030708;28;20099;-72
2022/08/02 09:06:57;;;;;;;8.23;3.40;;;;;;;20.78;63.56;101546.81;5031216;28;20038;-72
2022/08/02 09:09:23;;;;;;;10.65;3.50;;;;;;;20.83;62.70;101545.47;5039185;28;20092;-71
2022/08/02 09:11:48;;;;;;;9.88;3.42;;;;;;;20.90;61.61;101550.13;5033458;28;20061;-71
2022/08/02 09:14:28;;;;;;;12.13;3.47;;;;;;;20.93;62.16;101543.47;5032639;28;20393;-71
2022/08/02 09:17:05;;;;;;;9.45;3.30;;;;;;;20.96;62.88;101543.16;5030125;28;20079;-71
2022/08/02 09:19:30;;;;;;;10.68;3.90;;;;;;;20.98;61.03;101537.50;5032301;28;20026;-71
2022/08/02 09:22:10;;;;;;;10.20;3.40;;;;;;;20.98;61.55;101542.97;5022794;28;20524;-72
2022/08/02 09:24:46;;;;;;;10.55;3.75;;;;;;;21.05;60.39;101546.78;5027145;28;20293;-72
2022/08/02 09:27:13;;;;;;;9.70;3.40;;;;;;;21.11;59.95;101544.25;5021613;28;20029;-72
2022/08/02 09:29:38;;;;;;;9.48;3.60;;;;;;;21.17;57.16;101537.22;5035402;28;20053;-72
2022/08/02 09:32:04;;;;;;;9.68;2.92;;;;;;;21.24;58.01;101535.56;5027135;28;20025;-72
2022/08/02 09:34:47;;;;;;;13.10;3.58;;;;;;;21.27;59.47;101535.25;5021828;28;21117;-72
2022/08/02 09:37:27;;;;;;;6.45;2.80;;;;;;;21.36;58.64;101540.72;5021200;28;20033;-72
2022/08/02 09:39:53;;;;;;;8.50;3.45;;;;;;;21.40;58.16;101544.84;5023167;28;20022;-72
2022/08/02 09:42:19;;;;;;;5.60;2.58;;;;;;;21.48;55.96;101553.06;5028366;28;20050;-72
2022/08/02 09:44:54;;;;;;;4.68;2.65;;;;;;;21.52;56.65;101545.41;5032383;28;20445;-72
2022/08/02 09:47:19;;;;;;;6.07;3.05;;;;;;;21.51;58.11;101541.81;5032108;28;20061;-72
2022/08/02 09:49:46;;;;;;;7.03;2.75;;;;;;;21.56;58.86;101544.06;5028143;28;20060;-72
2022/08/02 09:52:12;;;;;;;8.43;2.95;;;;;;;21.59;54.67;101550.03;5029452;28;20499;-72
2022/08/02 09:54:38;;;;;;;5.47;2.58;;;;;;;21.61;56.88;101547.13;5032124;28;20021;-72
2022/08/02 09:57:04;;;;;;;7.07;3.00;;;;;;;21.67;56.10;101556.53;5031590;28;20404;-71
2022/08/02 09:59:30;;;;;;;11.15;3.35;;;;;;;21.75;54.85;101549.19;5036114;28;20029;-71
2022/08/02 10:01:57;;;;;;;6.15;2.63;;;;;;;21.77;53.66;101538.97;5030335;28;20033;-70
2022/08/02 10:04:24;;;;;;;6.03;2.53;;;;;;;21.96;55.69;101543.25;5031585;28;20032;-70
2022/08/02 10:06:53;;;;;;;8.88;3.20;;;;;;;21.92;53.84;101544.59;5031231;28;20425;-70
2022/08/02 10:09:19;;;;;;;6.10;2.72;;;;;;;21.96;55.00;101545.97;5031623;28;20036;-70
2022/08/02 10:11:46;;;;;;;5.38;2.85;;;;;;;22.00;53.71;101541.00;5031670;28;20026;-70
2022/08/02 10:14:12;;;;;;;7.05;2.50;;;;;;;22.06;53.73;101539.47;5031411;28;20484;-71
2022/08/02 10:16:40;;;;;;;5.65;2.40;;;;;;;22.02;56.17;101543.56;5031634;28;20527;-71
2022/08/02 10:19:06;;;;;;;7.68;2.60;;;;;;;22.12;51.67;101550.59;5031317;28;20573;-70
2022/08/02 10:21:34;;;;;;;8.60;2.38;;;;;;;22.19;54.60;101534.34;5028314;28;20030;-71
2022/08/02 10:24:09;;;;;;;5.20;2.33;;;;;;;22.19;52.98;101534.34;5031402;28;20048;-70
2022/08/02 10:26:38;;;;;;;8.32;2.78;;;;;;;22.24;52.31;101542.91;5028359;28;20032;-71
2022/08/02 10:29:04;;;;;;;4.35;2.50;;;;;;;22.32;50.03;101523.72;5031205;28;20061;-71
2022/08/02 10:31:42;;;;;;;7.63;2.60;;;;;;;22.40;51.44;101531.09;5030267;28;20031;-71
2022/08/02 10:34:11;;;;;;;5.80;2.15;;;;;;;22.49;50.61;101529.16;5035279;28;20059;-71
2022/08/02 10:36:38;;;;;;;8.18;2.60;;;;;;;22.56;51.52;101512.91;5031077;28;20049;-71
2022/08/02 10:39:05;;;;;;;4.82;2.25;;;;;;;22.62;52.56;101529.50;5030138;28;20116;-70
2022/08/02 10:41:42;;;;;;;7.93;2.33;;;;;;;22.59;52.63;101518.91;5031037;28;20079;-71
2022/08/02 10:44:07;;;;;;;6.25;2.17;;;;;;;22.64;51.47;101516.47;5031212;28;20381;-71
2022/08/02 10:46:37;;;;;;;6.65;2.42;;;;;;;22.64;50.08;101516.47;5030527;28;20030;-71
2022/08/02 10:49:21;;;;;;;2.38;2.10;;;;;;;22.64;51.44;101521.09;5029982;28;20045;-71
2022/08/02 10:52:01;;;;;;;5.95;2.33;;;;;;;22.65;51.71;101517.31;5027466;28;20386;-70
2022/08/02 10:54:30;;;;;;;5.75;2.15;;;;;;;22.65;49.16;101534.63;5030580;28;20041;-76
2022/08/02 10:56:56;;;;;;;6.80;2.30;;;;;;;22.62;46.33;101528.63;5029173;28;20072;-76
2022/08/02 10:59:26;;;;;;;5.80;2.50;;;;;;;22.71;47.74;101524.84;5025705;28;20470;-77
2022/08/02 11:01:59;;;;;;;8.50;2.67;;;;;;;22.75;51.55;101517.13;5042462;28;20076;-77
2022/08/02 11:04:25;;;;;;;6.43;2.08;;;;;;;22.75;47.33;101517.97;5024048;28;20026;-77
2022/08/02 11:07:09;;;;;;;2.67;1.77;;;;;;;22.82;48.55;101518.97;5026213;28;20029;-76
2022/08/02 11:09:34;;;;;;;3.92;2.17;;;;;;;22.99;46.04;101521.66;5026411;28;20025;-76
2022/08/02 11:12:02;;;;;;;6.15;2.17;;;;;;;23.07;45.51;101516.13;5028276;28;20556;-76
2022/08/02 11:14:28;;;;;;;9.02;2.75;;;;;;;23.09;45.67;101522.31;5027408;28;20033;-76
2022/08/02 11:16:56;;;;;;;4.25;2.05;;;;;;;23.14;44.95;101517.16;5028369;28;20060;-76
2022/08/02 11:19:25;;;;;;;4.77;2.30;;;;;;;23.16;49.20;101512.38;5026664;28;20029;-76
2022/08/02 11:22:01;;;;;;;5.95;1.92;;;;;;;23.20;46.92;101510.09;5027986;28;20087;-75
2022/08/02 11:24:30;;;;;;;6.57;2.58;;;;;;;23.28;44.97;101518.28;5030654;28;20029;-75